sensor_id;sensor_type;location;lat;lon;timestamp;pressure;altitude;pressure_sealevel;temperature;humidity
64243;BME280;50573;51.512;5.386;2023-04-29T00:09:58;77560.59;;;10.42;100.00
64243;BME280;50573;51.512;5.386;2023-04-29T00:20:03;77549.06;;;10.29;100.00
64243;BME280;50573;51.512;5.386;2023-04-29T00:30:07;77550.31;;;10.23;100.00
64243;BME280;50573;51.512;5.386;2023-04-29T00:40:12;77538.34;;;10.13;100.00
64243;BME280;50573;51.512;5.386;2023-04-29T00:50:15;77520.41;;;10.11;100.00
64243;BME280;50573;51.512;5.386;2023-04-29T01:00:20;77512.81;;;10.02;100.00
64243;BME280;50573;51.512;5.386;2023-04-29T01:10:27;77507.69;;;9.98;100.00
64243;BME280;50573;51.512;5.386;2023-04-29T01:20:33;77502.41;;;9.91;100.00
64243;BME280;50573;51.512;5.386;2023-04-29T01:30:44;77505.41;;;9.96;100.00
64243;BME280;50573;51.512;5.386;2023-04-29T01:40:54;77497.28;;;9.86;100.00
64243;BME280;50573;51.512;5.386;2023-04-29T01:51:02;77494.44;;;9.83;100.00
64243;BME280;50573;51.512;5.386;2023-04-29T02:01:07;77493.44;;;9.85;100.00
64243;BME280;50573;51.512;5.386;2023-04-29T02:11:14;77489.03;;;9.83;100.00
64243;BME280;50573;51.512;5.386;2023-04-29T02:21:17;77491.16;;;9.83;100.00
64243;BME280;50573;51.512;5.386;2023-04-29T02:31:21;77494.56;;;9.86;100.00
64243;BME280;50573;51.512;5.386;2023-04-29T02:41:25;77499.56;;;9.88;100.00
64243;BME280;50573;51.512;5.386;2023-04-29T02:51:29;77488.16;;;9.78;100.00
64243;BME280;50573;51.512;5.386;2023-04-29T03:01:33;77475.19;;;9.69;100.00
64243;BME280;50573;51.512;5.386;2023-04-29T03:11:37;77466.47;;;9.59;100.00
64243;BME280;50573;51.512;5.386;2023-04-29T03:21:41;77476.72;;;9.58;100.00
64243;BME280;50573;51.512;5.386;2023-04-29T03:31:45;77471.47;;;9.61;100.00
64243;BME280;50573;51.512;5.386;2023-04-29T03:41:49;77458.38;;;9.59;100.00
64243;BME280;50573;51.512;5.386;2023-04-29T03:51:54;77457.94;;;9.51;100.00
64243;BME280;50573;51.512;5.386;2023-04-29T04:01:57;77463.63;;;9.56;100.00
64243;BME280;50573;51.512;5.386;2023-04-29T04:12:02;77469.31;;;9.61;100.00
64243;BME280;50573;51.512;5.386;2023-04-29T04:22:05;77484.13;;;9.65;100.00
64243;BME280;50573;51.512;5.386;2023-04-29T04:32:13;77467.63;;;9.60;100.00
64243;BME280;50573;51.512;5.386;2023-04-29T04:42:16;77464.63;;;9.55;100.00
64243;BME280;50573;51.512;5.386;2023-04-29T04:52:22;77473.31;;;9.65;100.00
64243;BME280;50573;51.512;5.386;2023-04-29T05:02:36;77472.19;;;9.64;100.00
64243;BME280;50573;51.512;5.386;2023-04-29T05:12:41;77471.34;;;9.68;100.00
64243;BME280;50573;51.512;5.386;2023-04-29T05:22:45;77495.53;;;9.75;100.00
64243;BME280;50573;51.512;5.386;2023-04-29T05:32:50;77483.72;;;9.76;100.00
64243;BME280;50573;51.512;5.386;2023-04-29T05:42:55;77497.66;;;9.74;100.00
64243;BME280;50573;51.512;5.386;2023-04-29T05:52:59;77483.31;;;9.78;100.00
64243;BME280;50573;51.512;5.386;2023-04-29T06:03:03;77495.16;;;9.87;100.00
64243;BME280;50573;51.512;5.386;2023-04-29T06:13:07;77503.13;;;9.94;100.00
64243;BME280;50573;51.512;5.386;2023-04-29T06:23:10;77506.69;;;9.99;100.00
64243;BME280;50573;51.512;5.386;2023-04-29T06:33:16;77517.00;;;10.08;100.00
64243;BME280;50573;51.512;5.386;2023-04-29T06:43:19;77547.47;;;10.30;100.00
64243;BME280;50573;51.512;5.386;2023-04-29T06:53:42;77575.44;;;10.55;100.00
64243;BME280;50573;51.512;5.386;2023-04-29T07:03:45;77592.28;;;10.74;100.00
64243;BME280;50573;51.512;5.386;2023-04-29T07:13:51;77623.38;;;10.97;100.00
64243;BME280;50573;51.512;5.386;2023-04-29T07:23:54;77629.06;;;10.92;100.00
64243;BME280;50573;51.512;5.386;2023-04-29T07:34:01;77636.63;;;11.11;100.00
64243;BME280;50573;51.512;5.386;2023-04-29T07:44:04;77647.75;;;11.26;100.00
64243;BME280;50573;51.512;5.386;2023-04-29T07:54:08;77692.16;;;11.62;100.00
64243;BME280;50573;51.512;5.386;2023-04-29T08:04:11;77754.09;;;12.12;100.00
64243;BME280;50573;51.512;5.386;2023-04-29T08:14:29;77791.50;;;12.49;100.00
64243;BME280;50573;51.512;5.386;2023-04-29T08:24:33;77825.66;;;12.77;97.93
64243;BME280;50573;51.512;5.386;2023-04-29T08:34:38;77860.94;;;13.06;95.96
64243;BME280;50573;51.512;5.386;2023-04-29T08:44:42;77904.34;;;13.44;93.15
64243;BME280;50573;51.512;5.386;2023-04-29T08:54:47;77915.94;;;13.56;89.33
64243;BME280;50573;51.512;5.386;2023-04-29T09:04:56;77923.50;;;13.65;87.76
64243;BME280;50573;51.512;5.386;2023-04-29T09:15:05;77912.06;;;13.55;86.28
64243;BME280;50573;51.512;5.386;2023-04-29T09:25:11;77938.22;;;13.76;84.29
64243;BME280;50573;51.512;5.386;2023-04-29T09:35:24;78079.88;;;14.98;80.83
64243;BME280;50573;51.512;5.386;2023-04-29T09:45:34;78096.75;;;15.17;79.25
64243;BME280;50573;51.512;5.386;2023-04-29T09:55:58;78072.16;;;14.96;78.60
64243;BME280;50573;51.512;5.386;2023-04-29T10:06:03;78037.28;;;14.65;77.63
64243;BME280;50573;51.512;5.386;2023-04-29T10:16:14;78073.88;;;14.97;78.11
64243;BME280;50573;51.512;5.386;2023-04-29T10:26:25;78059.56;;;14.85;75.78
64243;BME280;50573;51.512;5.386;2023-04-29T10:36:31;78001.97;;;14.37;75.84
64243;BME280;50573;51.512;5.386;2023-04-29T10:46:35;78113.91;;;15.32;74.31
64243;BME280;50573;51.512;5.386;2023-04-29T10:56:41;78105.34;;;15.25;72.76
64243;BME280;50573;51.512;5.386;2023-04-29T11:06:47;78114.47;;;15.33;69.59
64243;BME280;50573;51.512;5.386;2023-04-29T11:16:52;78209.94;;;16.14;70.00
64243;BME280;50573;51.512;5.386;2023-04-29T11:26:59;78204.19;;;16.09;69.52
64243;BME280;50573;51.512;5.386;2023-04-29T11:37:06;78161.84;;;15.72;69.52
64243;BME280;50573;51.512;5.386;2023-04-29T11:47:09;78223.53;;;16.24;68.07
64243;BME280;50573;51.512;5.386;2023-04-29T11:57:14;78282.75;;;16.81;65.82
64243;BME280;50573;51.512;5.386;2023-04-29T12:07:17;78297.06;;;16.93;64.16
64243;BME280;50573;51.512;5.386;2023-04-29T12:17:23;78232.69;;;16.32;64.48
64243;BME280;50573;51.512;5.386;2023-04-29T12:27:26;78242.94;;;16.50;63.34
64243;BME280;50573;51.512;5.386;2023-04-29T12:37:32;78322.25;;;17.15;63.03
64243;BME280;50573;51.512;5.386;2023-04-29T12:47:43;78365.81;;;17.53;59.19
64243;BME280;50573;51.512;5.386;2023-04-29T12:57:48;78339.44;;;17.30;60.64
64243;BME280;50573;51.512;5.386;2023-04-29T13:07:52;78347.47;;;17.37;61.28
64243;BME280;50573;51.512;5.386;2023-04-29T13:17:57;78319.41;;;17.13;62.11
64243;BME280;50573;51.512;5.386;2023-04-29T13:28:03;78410.59;;;17.95;58.33
64243;BME280;50573;51.512;5.386;2023-04-29T13:38:14;78378.97;;;17.65;58.91
64243;BME280;50573;51.512;5.386;2023-04-29T13:48:21;78381.84;;;17.67;59.06
64243;BME280;50573;51.512;5.386;2023-04-29T13:58:43;78338.84;;;17.30;59.01
64243;BME280;50573;51.512;5.386;2023-04-29T14:08:50;78385.84;;;17.71;58.27
64243;BME280;50573;51.512;5.386;2023-04-29T14:18:55;78399.59;;;17.83;56.22
64243;BME280;50573;51.512;5.386;2023-04-29T14:29:01;78420.19;;;18.01;56.56
64243;BME280;50573;51.512;5.386;2023-04-29T14:39:07;78433.28;;;18.10;55.00
64243;BME280;50573;51.512;5.386;2023-04-29T14:49:18;78484.53;;;18.60;53.48
64243;BME280;50573;51.512;5.386;2023-04-29T14:59:24;78487.16;;;18.57;52.57
64243;BME280;50573;51.512;5.386;2023-04-29T15:09:29;78514.31;;;18.86;52.64
64243;BME280;50573;51.512;5.386;2023-04-29T15:19:35;78515.22;;;18.82;53.12
64243;BME280;50573;51.512;5.386;2023-04-29T15:29:39;78444.25;;;18.22;54.31
64243;BME280;50573;51.512;5.386;2023-04-29T15:39:44;78429.94;;;18.10;55.14
64243;BME280;50573;51.512;5.386;2023-04-29T15:49:48;78383.09;;;17.71;56.28
64243;BME280;50573;51.512;5.386;2023-04-29T15:59:53;78321.81;;;17.17;59.01
64243;BME280;50573;51.512;5.386;2023-04-29T16:09:56;78337.59;;;17.26;57.92
64243;BME280;50573;51.512;5.386;2023-04-29T16:20:00;78343.31;;;17.31;57.57
64243;BME280;50573;51.512;5.386;2023-04-29T16:30:06;78301.09;;;16.97;58.16
64243;BME280;50573;51.512;5.386;2023-04-29T16:40:11;78259.84;;;16.60;59.70
64243;BME280;50573;51.512;5.386;2023-04-29T16:50:15;78249.31;;;16.46;60.09
64243;BME280;50573;51.512;5.386;2023-04-29T17:00:19;78253.69;;;16.57;58.95
64243;BME280;50573;51.512;5.386;2023-04-29T17:10:22;78239.81;;;16.43;58.97
64243;BME280;50573;51.512;5.386;2023-04-29T17:20:27;78243.13;;;16.43;59.12
64243;BME280;50573;51.512;5.386;2023-04-29T17:30:30;78212.78;;;16.17;59.79
64243;BME280;50573;51.512;5.386;2023-04-29T17:40:35;78197.47;;;16.06;60.04
64243;BME280;50573;51.512;5.386;2023-04-29T17:50:38;78182.59;;;15.93;60.59
64243;BME280;50573;51.512;5.386;2023-04-29T18:00:44;78175.56;;;15.84;61.20
64243;BME280;50573;51.512;5.386;2023-04-29T18:10:48;78157.28;;;15.68;62.33
64243;BME280;50573;51.512;5.386;2023-04-29T18:20:52;78141.97;;;15.57;64.65
64243;BME280;50573;51.512;5.386;2023-04-29T18:30:57;78127.22;;;15.37;65.14
64243;BME280;50573;51.512;5.386;2023-04-29T18:41:01;78111.50;;;15.28;65.91
64243;BME280;50573;51.512;5.386;2023-04-29T18:51:05;78093.88;;;15.15;66.80
64243;BME280;50573;51.512;5.386;2023-04-29T19:01:10;78049.84;;;14.76;66.54
64243;BME280;50573;51.512;5.386;2023-04-29T19:11:13;78032.00;;;14.58;66.16
64243;BME280;50573;51.512;5.386;2023-04-29T19:21:17;78008.56;;;14.38;64.75
64243;BME280;50573;51.512;5.386;2023-04-29T19:31:21;77962.34;;;14.00;59.73
64243;BME280;50573;51.512;5.386;2023-04-29T19:41:25;77941.06;;;13.78;61.06
64243;BME280;50573;51.512;5.386;2023-04-29T19:51:28;77910.06;;;13.49;60.23
64243;BME280;50573;51.512;5.386;2023-04-29T20:01:33;77874.91;;;13.23;61.08
64243;BME280;50573;51.512;5.386;2023-04-29T20:11:36;77851.19;;;12.97;62.40
64243;BME280;50573;51.512;5.386;2023-04-29T20:21:41;77797.50;;;12.50;64.21
64243;BME280;50573;51.512;5.386;2023-04-29T20:31:44;77746.69;;;12.05;66.74
64243;BME280;50573;51.512;5.386;2023-04-29T20:41:48;77706.16;;;11.70;68.39
64243;BME280;50573;51.512;5.386;2023-04-29T20:51:51;77665.72;;;11.37;69.56
64243;BME280;50573;51.512;5.386;2023-04-29T21:01:56;77649.63;;;11.20;70.47
64243;BME280;50573;51.512;5.386;2023-04-29T21:11:59;77619.38;;;10.93;71.35
64243;BME280;50573;51.512;5.386;2023-04-29T21:22:03;77588.56;;;10.66;72.34
64243;BME280;50573;51.512;5.386;2023-04-29T21:32:07;77568.03;;;10.48;73.09
64243;BME280;50573;51.512;5.386;2023-04-29T21:42:12;77559.44;;;10.31;73.18
64243;BME280;50573;51.512;5.386;2023-04-29T21:52:15;77525.94;;;10.14;74.29
64243;BME280;50573;51.512;5.386;2023-04-29T22:02:19;77512.50;;;9.97;75.69
64243;BME280;50573;51.512;5.386;2023-04-29T22:12:25;77486.59;;;9.79;78.05
64243;BME280;50573;51.512;5.386;2023-04-29T22:22:30;77483.00;;;9.64;80.32
64243;BME280;50573;51.512;5.386;2023-04-29T22:32:33;77459.06;;;9.52;82.68
64243;BME280;50573;51.512;5.386;2023-04-29T22:42:37;77443.41;;;9.43;84.28
64243;BME280;50573;51.512;5.386;2023-04-29T22:52:42;77447.91;;;9.28;85.97
64243;BME280;50573;51.512;5.386;2023-04-29T23:02:47;77422.19;;;9.22;87.51
64243;BME280;50573;51.512;5.386;2023-04-29T23:12:50;77401.50;;;9.02;89.85
64243;BME280;50573;51.512;5.386;2023-04-29T23:22:54;77386.66;;;8.89;91.83
64243;BME280;50573;51.512;5.386;2023-04-29T23:32:57;77377.97;;;8.79;94.13
64243;BME280;50573;51.512;5.386;2023-04-29T23:43:01;77356.03;;;8.64;95.11
64243;BME280;50573;51.512;5.386;2023-04-29T23:53:04;77359.84;;;8.56;98.59
